Time;durP1;ratioP1;P1;durP2;ratioP2;P2;SDS_P1;SDS_P2;PMS_P1;PMS_P2;Temp;Humidity;BMP_temperature;BMP_pressure;BME280_temperature;BME280_humidity;BME280_pressure;Samples;Min_cycle;Max_cycle;Signal;HPM_P1;HPM_P2
2024/03/17 00:00:24;;;;;;;13.80;6.00;;;;;;;;;;5065864;28;20071;-64
2024/03/17 00:02:50;;;;;;;12.85;5.20;;;;;;;;;;5060008;28;20037;-64
2024/03/17 00:05:18;;;;;;;11.63;5.13;;;;;;;;;;5066682;28;20056;-64
2024/03/17 00:07:44;;;;;;;12.98;5.13;;;;;;;;;;5063997;28;20451;-64
2024/03/17 00:10:10;;;;;;;13.10;5.40;;;;;;;;;;5066939;28;20048;-65
2024/03/17 00:12:37;;;;;;;13.40;5.15;;;;;;;;;;5063748;28;20048;-64
2024/03/17 00:15:07;;;;;;;12.57;5.30;;;;;;;;;;5056596;28;20076;-64
2024/03/17 00:17:34;;;;;;;;;;;;;;;;;;5062225;28;20048;-64
2024/03/17 00:20:08;;;;;;;13.23;4.72;;;;;;;;;;5059124;28;19913;-64
2024/03/17 00:22:39;;;;;;;11.95;5.28;;;;;;;;;;5089438;28;20406;-66
2024/03/17 00:25:07;;;;;;;10.55;5.03;;;;;;;;;;5056535;28;20053;-64
2024/03/17 00:27:35;;;;;;;15.00;6.28;;;;;;;;;;5064577;28;20052;-63
2024/03/17 00:30:02;;;;;;;13.60;5.85;;;;;;;;;;5059023;28;20422;-63
2024/03/17 00:32:29;;;;;;;11.63;5.50;;;;;;;;;;5067029;28;20049;-64
2024/03/17 00:34:55;;;;;;;9.95;4.93;;;;;;;;;;5057440;28;20049;-64
2024/03/17 00:37:21;;;;;;;9.35;5.05;;;;;;;;;;5055072;28;20051;-63
2024/03/17 00:39:47;;;;;;;9.75;4.93;;;;;;;;;;5068853;28;20064;-63
2024/03/17 00:42:14;;;;;;;13.68;5.38;;;;;;;;;;5062401;28;20052;-64
2024/03/17 00:44:41;;;;;;;11.18;5.30;;;;;;;;;;5068063;28;20063;-64
2024/03/17 00:47:08;;;;;;;16.98;5.63;;;;;;;;;;5061857;28;20029;-63
2024/03/17 00:49:34;;;;;;;17.23;6.35;;;;;;;;;;5074773;28;20063;-64
2024/03/17 00:52:00;;;;;;;14.95;6.30;;;;;;;;;;5066200;28;20028;-64
2024/03/17 00:54:26;;;;;;;17.83;6.28;;;;;;;;;;5063791;28;20051;-64
2024/03/17 00:56:52;;;;;;;15.90;6.05;;;;;;;;;;5055506;28;20057;-63
2024/03/17 00:59:18;;;;;;;11.32;5.22;;;;;;;;;;5063308;28;20418;-64
2024/03/17 01:01:44;;;;;;;14.23;5.28;;;;;;;;;;5066133;28;20067;-64
2024/03/17 01:04:10;;;;;;;11.98;5.32;;;;;;;;;;5066801;28;20511;-64
2024/03/17 01:06:40;;;;;;;15.00;6.05;;;;;;;;;;5062111;28;20036;-64
2024/03/17 01:09:08;;;;;;;11.82;5.20;;;;;;;;;;5065181;28;20041;-63
2024/03/17 01:11:34;;;;;;;9.93;5.18;;;;;;;;;;5065813;28;20047;-63
2024/03/17 01:14:00;;;;;;;10.35;4.47;;;;;;;;;;5062505;28;20774;-63
2024/03/17 01:16:26;;;;;;;11.75;4.90;;;;;;;;;;5064298;28;20048;-63
2024/03/17 01:18:53;;;;;;;12.73;4.90;;;;;;;;;;5059026;28;20202;-63
2024/03/17 01:21:20;;;;;;;11.32;5.00;;;;;;;;;;5061482;28;20056;-63
2024/03/17 01:23:48;;;;;;;9.73;5.30;;;;;;;;;;5058426;28;20037;-63
2024/03/17 01:26:14;;;;;;;9.52;4.80;;;;;;;;;;5063812;28;20036;-64
2024/03/17 01:28:40;;;;;;;10.50;5.47;;;;;;;;;;5067459;28;20043;-63
2024/03/17 01:31:07;;;;;;;10.57;5.18;;;;;;;;;;5058919;28;20068;-63
2024/03/17 01:33:33;;;;;;;13.68;5.43;;;;;;;;;;5064184;28;20421;-63
2024/03/17 01:35:59;;;;;;;10.27;5.22;;;;;;;;;;5062049;28;20036;-63
2024/03/17 01:38:25;;;;;;;10.85;4.93;;;;;;;;;;5066933;28;20044;-63
2024/03/17 01:40:51;;;;;;;11.85;5.40;;;;;;;;;;5061823;28;20044;-64
2024/03/17 01:43:18;;;;;;;13.55;5.80;;;;;;;;;;5063991;28;20044;-63
2024/03/17 01:45:44;;;;;;;9.10;4.57;;;;;;;;;;5065825;28;20048;-63
2024/03/17 01:48:16;;;;;;;10.07;5.47;;;;;;;;;;5066671;28;20064;-64
2024/03/17 01:50:43;;;;;;;13.75;5.50;;;;;;;;;;5068444;28;20043;-63
2024/03/17 01:53:13;;;;;;;11.73;6.00;;;;;;;;;;5067162;28;20040;-63
2024/03/17 01:55:42;;;;;;;10.30;5.47;;;;;;;;;;5069776;28;20060;-63
2024/03/17 01:58:10;;;;;;;12.95;5.40;;;;;;;;;;5057973;28;20041;-63
2024/03/17 02:00:38;;;;;;;12.88;5.57;;;;;;;;;;5065090;28;20032;-64
2024/03/17 02:03:08;;;;;;;11.13;5.75;;;;;;;;;;5058490;28;20041;-63
2024/03/17 02:05:38;;;;;;;11.00;6.03;;;;;;;;;;5060145;28;20025;-63
2024/03/17 02:08:06;;;;;;;13.50;5.72;;;;;;;;;;5058805;28;20068;-63
2024/03/17 02:10:33;;;;;;;11.10;5.65;;;;;;;;;;5062553;28;20052;-63
2024/03/17 02:13:01;;;;;;;10.65;5.10;;;;;;;;;;5058118;28;20033;-64
2024/03/17 02:15:27;;;;;;;10.98;5.13;;;;;;;;;;5061189;28;20043;-63
2024/03/17 02:17:53;;;;;;;10.63;5.53;;;;;;;;;;5061884;28;20532;-63
2024/03/17 02:20:22;;;;;;;11.60;6.07;;;;;;;;;;5065912;28;20029;-63
2024/03/17 02:22:48;;;;;;;10.50;5.03;;;;;;;;;;5076053;28;20039;-63
2024/03/17 02:25:14;;;;;;;14.60;5.70;;;;;;;;;;5076654;28;20047;-63
2024/03/17 02:27:40;;;;;;;11.73;5.40;;;;;;;;;;5058786;28;20398;-63
2024/03/17 02:30:09;;;;;;;14.27;5.95;;;;;;;;;;5062529;28;20040;-63
2024/03/17 02:32:35;;;;;;;12.25;6.10;;;;;;;;;;5067137;28;20044;-63
2024/03/17 02:35:02;;;;;;;10.32;5.65;;;;;;;;;;5068770;28;20040;-63
2024/03/17 02:37:28;;;;;;;12.73;5.88;;;;;;;;;;5068178;28;20519;-63
2024/03/17 02:39:54;;;;;;;11.63;5.45;;;;;;;;;;5065077;28;20059;-64
2024/03/17 02:42:21;;;;;;;10.80;5.60;;;;;;;;;;5069012;28;20415;-63
2024/03/17 02:44:47;;;;;;;11.18;6.05;;;;;;;;;;5067570;28;20497;-64
2024/03/17 02:47:14;;;;;;;11.30;5.70;;;;;;;;;;5070784;28;20189;-63
2024/03/17 02:49:43;;;;;;;9.13;5.50;;;;;;;;;;5066575;28;20043;-64
2024/03/17 02:52:10;;;;;;;9.30;5.32;;;;;;;;;;5062722;28;20033;-63
2024/03/17 02:54:37;;;;;;;11.75;5.85;;;;;;;;;;5061786;28;20047;-64
2024/03/17 02:57:04;;;;;;;12.80;5.85;;;;;;;;;;5065142;28;20036;-64
2024/03/17 02:59:31;;;;;;;11.18;5.82;;;;;;;;;;5065044;28;20028;-64
2024/03/17 03:01:59;;;;;;;9.73;5.25;;;;;;;;;;5081501;22;20023;-64
2024/03/17 03:04:25;;;;;;;9.52;5.70;;;;;;;;;;5085465;28;20036;-65
2024/03/17 03:06:51;;;;;;;8.57;5.65;;;;;;;;;;5087362;28;20024;-63
2024/03/17 03:09:25;;;;;;;10.55;5.32;;;;;;;;;;5088885;28;20374;-64
2024/03/17 03:11:52;;;;;;;9.38;5.15;;;;;;;;;;5086731;28;20036;-63
2024/03/17 03:14:19;;;;;;;11.57;5.85;;;;;;;;;;5073127;28;20055;-65
2024/03/17 03:16:45;;;;;;;12.93;6.20;;;;;;;;;;5075058;28;20059;-64
2024/03/17 03:19:11;;;;;;;9.93;5.18;;;;;;;;;;5074080;28;20044;-64
2024/03/17 03:21:37;;;;;;;11.00;5.47;;;;;;;;;;5075338;28;20063;-64
2024/03/17 03:24:04;;;;;;;10.40;5.28;;;;;;;;;;5079732;28;21891;-63
2024/03/17 03:26:30;;;;;;;11.77;6.65;;;;;;;;;;5078695;28;20048;-64
2024/03/17 03:28:56;;;;;;;10.32;5.45;;;;;;;;;;5079039;28;20045;-64
2024/03/17 03:31:22;;;;;;;14.05;5.80;;;;;;;;;;5077900;28;20049;-65
2024/03/17 03:33:48;;;;;;;12.10;6.22;;;;;;;;;;5078447;28;20051;-64
2024/03/17 03:36:16;;;;;;;12.77;6.63;;;;;;;;;;5076091;28;20059;-64
2024/03/17 03:38:42;;;;;;;12.63;6.38;;;;;;;;;;5075020;28;20047;-64
2024/03/17 03:41:16;;;;;;;13.20;6.57;;;;;;;;;;5075198;28;20040;-64
2024/03/17 03:43:43;;;;;;;12.25;6.32;;;;;;;;;;5076889;28;20037;-64
2024/03/17 03:46:09;;;;;;;13.43;6.22;;;;;;;;;;5078291;28;20046;-63
2024/03/17 03:48:35;;;;;;;12.73;6.40;;;;;;;;;;5072832;28;20032;-64
2024/03/17 03:51:09;;;;;;;12.75;6.68;;;;;;;;;;5074860;28;20055;-64
2024/03/17 03:53:37;;;;;;;15.30;6.30;;;;;;;;;;5077675;28;20047;-64
2024/03/17 03:56:10;;;;;;;13.27;6.55;;;;;;;;;;5071538;28;20090;-64
2024/03/17 03:58:37;;;;;;;13.60;6.53;;;;;;;;;;5080573;28;20032;-63
2024/03/17 04:01:08;;;;;;;14.20;7.00;;;;;;;;;;5075790;28;20048;-64
2024/03/17 04:03:35;;;;;;;16.67;7.25;;;;;;;;;;5081243;28;20044;-65
2024/03/17 04:06:06;;;;;;;15.80;7.60;;;;;;;;;;5078121;28;20028;-65
2024/03/17 04:08:41;;;;;;;15.00;6.97;;;;;;;;;;5077373;28;20528;-64
2024/03/17 04:11:07;;;;;;;11.55;5.65;;;;;;;;;;5078446;28;20421;-65
2024/03/17 04:13:34;;;;;;;14.20;5.57;;;;;;;;;;5073892;28;20516;-64
2024/03/17 04:16:04;;;;;;;10.10;5.55;;;;;;;;;;5072998;28;20494;-65
2024/03/17 04:18:30;;;;;;;;;;;;;;;;;;5074686;28;20036;-65
2024/03/17 04:20:57;;;;;;;12.75;5.43;;;;;;;;;;5075178;28;19920;-64
2024/03/17 04:23:23;;;;;;;9.82;4.90;;;;;;;;;;5070873;28;20033;-64
2024/03/17 04:25:51;;;;;;;10.95;5.20;;;;;;;;;;5076251;28;20410;-64
2024/03/17 04:28:17;;;;;;;11.57;5.85;;;;;;;;;;5074440;28;20397;-65
2024/03/17 04:30:44;;;;;;;13.32;5.45;;;;;;;;;;5079792;28;20417;-64
2024/03/17 04:33:11;;;;;;;12.15;4.93;;;;;;;;;;5075079;28;20043;-64
2024/03/17 04:35:38;;;;;;;8.05;4.68;;;;;;;;;;5074234;28;20043;-65
2024/03/17 04:38:05;;;;;;;10.18;5.00;;;;;;;;;;5075070;28;20041;-65
2024/03/17 04:40:35;;;;;;;8.18;4.40;;;;;;;;;;5070522;28;20028;-64
2024/03/17 04:43:01;;;;;;;;;;;;;;;;;;5079577;28;20051;-64
2024/03/17 04:45:27;;;;;;;7.40;4.35;;;;;;;;;;5078412;28;19919;-64
2024/03/17 04:47:53;;;;;;;8.43;4.35;;;;;;;;;;5101554;28;20044;-64
2024/03/17 04:50:19;;;;;;;9.55;4.68;;;;;;;;;;5084289;28;20044;-64
2024/03/17 04:52:47;;;;;;;7.85;4.35;;;;;;;;;;5084192;28;20048;-64
2024/03/17 04:55:13;;;;;;;9.60;4.22;;;;;;;;;;5080743;28;20051;-64
2024/03/17 04:57:39;;;;;;;10.98;5.32;;;;;;;;;;5081549;28;20052;-64
2024/03/17 05:00:11;;;;;;;11.60;5.30;;;;;;;;;;5074853;28;20048;-65
2024/03/17 05:02:39;;;;;;;11.25;5.72;;;;;;;;;;5075710;28;20043;-65
2024/03/17 05:05:07;;;;;;;15.90;8.82;;;;;;;;;;5077349;28;20040;-64
2024/03/17 05:07:33;;;;;;;20.38;10.05;;;;;;;;;;5079586;28;20048;-63
2024/03/17 05:09:59;;;;;;;18.02;10.18;;;;;;;;;;5078788;28;20048;-66
2024/03/17 05:12:25;;;;;;;22.63;9.60;;;;;;;;;;5077816;28;20059;-68
2024/03/17 05:14:51;;;;;;;22.10;10.18;;;;;;;;;;5087089;28;20020;-70
2024/03/17 05:17:17;;;;;;;16.50;9.10;;;;;;;;;;5077609;28;20492;-69
2024/03/17 05:19:43;;;;;;;17.48;8.82;;;;;;;;;;5077429;28;20040;-67
2024/03/17 05:22:10;;;;;;;18.17;8.70;;;;;;;;;;5080573;28;20046;-67
2024/03/17 05:24:36;;;;;;;16.00;7.35;;;;;;;;;;5079882;28;20024;-68
2024/03/17 05:27:03;;;;;;;11.90;5.70;;;;;;;;;;5079282;28;20032;-67
2024/03/17 05:29:29;;;;;;;12.90;4.93;;;;;;;;;;5079401;28;20369;-68
2024/03/17 05:31:56;;;;;;;11.80;5.15;;;;;;;;;;5081218;28;20374;-68
2024/03/17 05:34:23;;;;;;;9.98;4.90;;;;;;;;;;5084960;28;20039;-69
2024/03/17 05:36:50;;;;;;;12.70;4.78;;;;;;;;;;5079961;28;20659;-68
2024/03/17 05:39:17;;;;;;;7.38;4.38;;;;;;;;;;5080168;28;20039;-68
2024/03/17 05:41:48;;;;;;;9.73;5.28;;;;;;;;;;5081895;28;20036;-69
2024/03/17 05:44:15;;;;;;;9.63;5.05;;;;;;;;;;5080598;28;20047;-70
2024/03/17 05:46:42;;;;;;;8.90;4.47;;;;;;;;;;5075078;28;20055;-67
2024/03/17 05:49:08;;;;;;;8.77;5.22;;;;;;;;;;5075049;28;20390;-68
2024/03/17 05:51:34;;;;;;;9.88;5.43;;;;;;;;;;5080961;28;20033;-68
2024/03/17 05:54:00;;;;;;;9.45;4.78;;;;;;;;;;5073516;28;20119;-66
2024/03/17 05:56:26;;;;;;;9.05;4.80;;;;;;;;;;5077837;28;20051;-68
2024/03/17 05:58:52;;;;;;;10.40;5.00;;;;;;;;;;5084137;28;20052;-68
2024/03/17 06:01:19;;;;;;;8.80;5.40;;;;;;;;;;5083979;28;20028;-69
2024/03/17 06:03:45;;;;;;;20.73;10.00;;;;;;;;;;5078449;28;20047;-68
2024/03/17 06:06:12;;;;;;;25.25;10.60;;;;;;;;;;5079184;28;20035;-68
2024/03/17 06:08:41;;;;;;;16.92;8.55;;;;;;;;;;5082328;28;20028;-67
2024/03/17 06:11:08;;;;;;;15.98;7.28;;;;;;;;;;5076066;28;20043;-69
2024/03/17 06:13:34;;;;;;;11.25;6.13;;;;;;;;;;5075281;28;20043;-69
2024/03/17 06:16:04;;;;;;;12.93;5.90;;;;;;;;;;5077378;28;20032;-68
2024/03/17 06:18:31;;;;;;;12.57;6.43;;;;;;;;;;5076762;28;20058;-68
2024/03/17 06:20:58;;;;;;;15.40;6.25;;;;;;;;;;5076260;28;20044;-67
2024/03/17 06:23:26;;;;;;;25.60;10.85;;;;;;;;;;5080892;28;20028;-67
2024/03/17 06:25:55;;;;;;;30.17;11.23;;;;;;;;;;5076174;28;20036;-67
2024/03/17 06:28:21;;;;;;;23.65;11.63;;;;;;;;;;5080428;28;20048;-67
2024/03/17 06:31:02;;;;;;;24.60;11.73;;;;;;;;;;5076657;28;20044;-68
2024/03/17 06:33:28;;;;;;;20.55;11.80;;;;;;;;;;5079459;28;20524;-66
2024/03/17 06:35:55;;;;;;;22.45;11.60;;;;;;;;;;5074885;28;20063;-66
2024/03/17 06:38:21;;;;;;;24.95;12.30;;;;;;;;;;5079019;28;20040;-66
2024/03/17 06:40:49;;;;;;;33.42;16.48;;;;;;;;;;5078786;28;20051;-66
2024/03/17 06:43:16;;;;;;;31.05;15.55;;;;;;;;;;5080869;28;20059;-66
2024/03/17 06:45:42;;;;;;;27.38;14.55;;;;;;;;;;5077266;28;20043;-66
2024/03/17 06:48:08;;;;;;;34.67;14.35;;;;;;;;;;5071490;28;20051;-66
2024/03/17 06:50:34;;;;;;;27.30;13.68;;;;;;;;;;5075703;28;20036;-66
2024/03/17 06:53:00;;;;;;;25.23;12.05;;;;;;;;;;5081616;28;20052;-66
2024/03/17 06:55:28;;;;;;;24.55;12.10;;;;;;;;;;5078257;28;20051;-66
2024/03/17 06:57:54;;;;;;;19.15;10.98;;;;;;;;;;5079954;28;20040;-66
2024/03/17 07:00:24;;;;;;;19.48;9.30;;;;;;;;;;5076834;28;20051;-66
2024/03/17 07:02:51;;;;;;;25.17;10.30;;;;;;;;;;5088534;28;20048;-66
2024/03/17 07:05:18;;;;;;;16.50;6.97;;;;;;;;;;5081679;28;20036;-66
2024/03/17 07:07:44;;;;;;;11.93;6.10;;;;;;;;;;5072978;28;20050;-66
2024/03/17 07:10:12;;;;;;;11.40;6.32;;;;;;;;;;5084838;28;20075;-66
2024/03/17 07:12:38;;;;;;;10.75;6.65;;;;;;;;;;5075272;28;20044;-66
2024/03/17 07:15:05;;;;;;;28.25;14.27;;;;;;;;;;5077131;28;20032;-66
2024/03/17 07:17:32;;;;;;;22.77;11.90;;;;;;;;;;5093606;28;20055;-66
2024/03/17 07:19:58;;;;;;;18.92;8.82;;;;;;;;;;5080306;28;20035;-66
2024/03/17 07:22:26;;;;;;;12.98;6.68;;;;;;;;;;5073566;28;20534;-67
2024/03/17 07:24:56;;;;;;;13.52;7.03;;;;;;;;;;5079082;28;20040;-66
2024/03/17 07:27:22;;;;;;;16.70;8.32;;;;;;;;;;5076829;28;20052;-67
2024/03/17 07:29:49;;;;;;;21.40;10.40;;;;;;;;;;5076017;28;20035;-66
2024/03/17 07:32:15;;;;;;;20.45;9.02;;;;;;;;;;5083200;28;20040;-66
2024/03/17 07:34:41;;;;;;;22.67;11.07;;;;;;;;;;5078545;28;20039;-66
2024/03/17 07:37:07;;;;;;;20.90;9.43;;;;;;;;;;5079170;28;20043;-67
2024/03/17 07:39:33;;;;;;;16.60;7.90;;;;;;;;;;5074502;28;20059;-66
2024/03/17 07:42:01;;;;;;;15.02;7.78;;;;;;;;;;5084969;28;20051;-66
2024/03/17 07:44:34;;;;;;;14.85;7.18;;;;;;;;;;5086930;28;20025;-66
2024/03/17 07:47:04;;;;;;;15.82;8.55;;;;;;;;;;5091842;28;20048;-66
2024/03/17 07:49:31;;;;;;;17.83;7.07;;;;;;;;;;5084194;28;20032;-66
2024/03/17 07:51:57;;;;;;;15.15;6.68;;;;;;;;;;5082185;28;20055;-66
2024/03/17 07:54:24;;;;;;;13.80;7.55;;;;;;;;;;5088202;28;20055;-65
2024/03/17 07:56:51;;;;;;;22.95;11.48;;;;;;;;;;5088096;28;20052;-68
2024/03/17 07:59:17;;;;;;;22.50;12.57;;;;;;;;;;5084928;28;20047;-67
2024/03/17 08:01:44;;;;;;;28.10;12.73;;;;;;;;;;5091200;28;20063;-69
2024/03/17 08:04:11;;;;;;;24.70;13.43;;;;;;;;;;5092462;28;20035;-68
2024/03/17 08:06:40;;;;;;;23.00;11.52;;;;;;;;;;5076254;28;20056;-67
2024/03/17 08:09:08;;;;;;;24.63;13.10;;;;;;;;;;5098732;28;20043;-69
2024/03/17 08:11:35;;;;;;;23.02;12.15;;;;;;;;;;5084924;28;20051;-69
2024/03/17 08:14:01;;;;;;;26.90;13.32;;;;;;;;;;5097461;28;20725;-69
2024/03/17 08:16:29;;;;;;;25.27;13.13;;;;;;;;;;5090704;28;20078;-67
2024/03/17 08:18:56;;;;;;;27.10;13.38;;;;;;;;;;5084577;28;20040;-67
2024/03/17 08:21:22;;;;;;;26.67;11.50;;;;;;;;;;5079545;28;20066;-66
2024/03/17 08:23:48;;;;;;;26.00;13.07;;;;;;;;;;5081198;28;20048;-68
2024/03/17 08:26:14;;;;;;;27.83;13.75;;;;;;;;;;5077060;28;20047;-69
2024/03/17 08:28:41;;;;;;;32.95;13.77;;;;;;;;;;5081995;28;20045;-68
2024/03/17 08:31:07;;;;;;;23.35;12.38;;;;;;;;;;5080673;28;20031;-67
2024/03/17 08:33:36;;;;;;;28.23;14.18;;;;;;;;;;5084805;28;20032;-69
2024/03/17 08:36:09;;;;;;;25.38;13.40;;;;;;;;;;5085027;28;20033;-69
2024/03/17 08:38:37;;;;;;;27.50;13.13;;;;;;;;;;5083343;28;20051;-70
2024/03/17 08:41:07;;;;;;;25.73;11.80;;;;;;;;;;5084127;28;20032;-66
2024/03/17 08:43:34;;;;;;;22.05;10.32;;;;;;;;;;5074930;28;20045;-67
2024/03/17 08:46:08;;;;;;;19.13;9.32;;;;;;;;;;5089320;28;20029;-67
2024/03/17 08:48:37;;;;;;;19.70;9.60;;;;;;;;;;5080281;28;20032;-67
2024/03/17 08:51:04;;;;;;;20.30;9.57;;;;;;;;;;5094941;27;20111;-67
2024/03/17 08:53:31;;;;;;;17.60;9.65;;;;;;;;;;5083929;28;20052;-68
2024/03/17 08:55:58;;;;;;;17.92;9.30;;;;;;;;;;5081326;28;20027;-67
2024/03/17 08:58:25;;;;;;;17.00;9.45;;;;;;;;;;5084836;28;20043;-69
2024/03/17 09:00:51;;;;;;;19.52;11.10;;;;;;;;;;5083985;28;20036;-67
2024/03/17 09:03:18;;;;;;;24.08;11.77;;;;;;;;;;5080532;28;20131;-67
2024/03/17 09:05:46;;;;;;;26.70;13.32;;;;;;;;;;5080152;22;20803;-67
2024/03/17 09:08:22;;;;;;;22.33;11.68;;;;;;;;;;5082271;28;20047;-67
2024/03/17 09:10:50;;;;;;;19.40;11.50;;;;;;;;;;5062530;28;20402;-65
2024/03/17 09:13:19;;;;;;;20.17;10.43;;;;;;;;;;5064808;28;20041;-66
2024/03/17 09:16:13;;;;;;;;;;;;;;;;;;5068895;28;20039;-66
2024/03/17 09:18:41;;;;;;;19.02;10.27;;;;;;;;;;5068992;28;19936;-66
2024/03/17 09:21:08;;;;;;;89.03;25.63;;;;;;;;;;5071590;28;20036;-68
2024/03/17 09:23:34;;;;;;;59.38;20.75;;;;;;;;;;5065360;28;20044;-68
2024/03/17 09:26:08;;;;;;;57.50;19.13;;;;;;;;;;5069864;28;20032;-68
2024/03/17 09:28:35;;;;;;;37.33;12.40;;;;;;;;;;5066057;28;20032;-68
2024/03/17 09:31:02;;;;;;;36.25;12.30;;;;;;;;;;5062195;28;20071;-68
2024/03/17 09:33:29;;;;;;;19.65;8.80;;;;;;;;;;5065208;28;20039;-67
2024/03/17 09:35:57;;;;;;;13.73;6.70;;;;;;;;;;5069463;28;20028;-67
2024/03/17 09:38:23;;;;;;;13.35;7.28;;;;;;;;;;5075244;28;20040;-67
2024/03/17 09:40:52;;;;;;;11.30;6.35;;;;;;;;;;5070091;28;20053;-67
2024/03/17 09:43:20;;;;;;;15.02;7.88;;;;;;;;;;5068555;28;20037;-67
2024/03/17 09:45:47;;;;;;;35.08;17.85;;;;;;;;;;5069447;28;20409;-66
2024/03/17 09:48:20;;;;;;;23.98;13.73;;;;;;;;;;5068745;28;20041;-67
2024/03/17 09:50:52;;;;;;;11.90;7.07;;;;;;;;;;5070216;28;20048;-67
2024/03/17 09:53:29;;;;;;;10.45;6.03;;;;;;;;;;5069246;28;20711;-70
2024/03/17 09:56:09;;;;;;;12.48;5.72;;;;;;;;;;5070467;28;20431;-65
2024/03/17 09:58:35;;;;;;;14.60;6.82;;;;;;;;;;5060302;28;20052;-66
2024/03/17 10:01:01;;;;;;;12.75;6.47;;;;;;;;;;5071103;28;20070;-67
2024/03/17 10:03:40;;;;;;;12.32;6.13;;;;;;;;;;5071857;28;20035;-67
2024/03/17 10:06:06;;;;;;;10.43;5.43;;;;;;;;;;5071697;28;20512;-69
2024/03/17 10:08:34;;;;;;;11.23;5.43;;;;;;;;;;5070263;28;20041;-67
2024/03/17 10:11:00;;;;;;;11.18;5.85;;;;;;;;;;5068865;28;20047;-66
2024/03/17 10:13:26;;;;;;;9.70;5.85;;;;;;;;;;5070464;28;20036;-66
2024/03/17 10:15:53;;;;;;;8.75;5.03;;;;;;;;;;5072181;28;20036;-66
2024/03/17 10:18:26;;;;;;;10.18;5.60;;;;;;;;;;5065956;28;20037;-67
2024/03/17 10:20:58;;;;;;;8.82;4.95;;;;;;;;;;5062024;28;20057;-65
2024/03/17 10:23:25;;;;;;;8.75;4.75;;;;;;;;;;5061257;28;20493;-65
2024/03/17 10:25:51;;;;;;;6.97;5.03;;;;;;;;;;5069598;28;20429;-66
2024/03/17 10:28:20;;;;;;;8.32;5.40;;;;;;;;;;5068324;28;20406;-66
2024/03/17 10:31:00;;;;;;;9.00;4.85;;;;;;;;;;5070190;28;20055;-65
2024/03/17 10:33:27;;;;;;;14.60;5.78;;;;;;;;;;5072161;28;20038;-65
2024/03/17 10:36:01;;;;;;;9.60;5.25;;;;;;;;;;5068524;28;20043;-65
2024/03/17 10:38:28;;;;;;;8.20;5.10;;;;;;;;;;5070845;28;20049;-65
2024/03/17 10:40:54;;;;;;;7.72;5.53;;;;;;;;;;5061444;28;20064;-65
2024/03/17 10:43:24;;;;;;;14.38;4.97;;;;;;;;;;5074703;28;20044;-65
2024/03/17 10:45:54;;;;;;;7.78;4.90;;;;;;;;;;5051330;28;20037;-65
2024/03/17 10:48:22;;;;;;;7.55;5.03;;;;;;;;;;5065900;28;20036;-65
2024/03/17 10:50:49;;;;;;;8.90;5.15;;;;;;;;;;5065053;28;20035;-66
2024/03/17 10:53:25;;;;;;;8.52;5.40;;;;;;;;;;5067289;28;20041;-66
2024/03/17 10:56:05;;;;;;;13.10;5.35;;;;;;;;;;5066945;28;20036;-66
2024/03/17 10:58:46;;;;;;;;;;;;;;;;;;5075391;28;20049;-66
2024/03/17 11:01:14;;;;;;;6.40;3.83;;;;;;;;;;5065669;28;19912;-66
2024/03/17 11:03:41;;;;;;;9.70;4.85;;;;;;;;;;5070891;28;20036;-67
2024/03/17 11:06:08;;;;;;;9.05;4.78;;;;;;;;;;5043334;28;20040;-67
2024/03/17 11:08:35;;;;;;;5.30;3.55;;;;;;;;;;5059482;28;20055;-65
2024/03/17 11:11:03;;;;;;;7.95;3.25;;;;;;;;;;5062124;28;20032;-65
2024/03/17 11:13:31;;;;;;;9.07;2.90;;;;;;;;;;5061814;28;20049;-65
2024/03/17 11:15:58;;;;;;;4.70;2.53;;;;;;;;;;5070265;28;20029;-65
2024/03/17 11:18:24;;;;;;;7.30;3.22;;;;;;;;;;5065634;28;20045;-66
2024/03/17 11:21:07;;;;;;;6.40;2.70;;;;;;;;;;5070064;28;20040;-66
2024/03/17 11:23:34;;;;;;;4.97;2.40;;;;;;;;;;5064321;28;20040;-66
2024/03/17 11:26:00;;;;;;;7.90;2.63;;;;;;;;;;5069235;28;20059;-66
2024/03/17 11:28:44;;;;;;;7.50;3.38;;;;;;;;;;5067302;28;20068;-66
2024/03/17 11:31:35;;;;;;;7.70;3.20;;;;;;;;;;5065597;28;20044;-65
2024/03/17 11:34:04;;;;;;;9.63;3.63;;;;;;;;;;5063460;28;20029;-66
2024/03/17 11:36:36;;;;;;;5.40;3.03;;;;;;;;;;5064423;28;20035;-64
2024/03/17 11:39:17;;;;;;;5.75;2.80;;;;;;;;;;5064959;28;20056;-63
2024/03/17 11:41:47;;;;;;;7.75;3.03;;;;;;;;;;5066199;28;20417;-63
2024/03/17 11:44:26;;;;;;;13.45;4.60;;;;;;;;;;5071994;28;20024;-64
2024/03/17 11:47:03;;;;;;;4.78;3.70;;;;;;;;;;5062077;28;20041;-63
2024/03/17 11:49:37;;;;;;;11.48;3.38;;;;;;;;;;5066757;28;20032;-63
2024/03/17 11:52:11;;;;;;;7.28;3.47;;;;;;;;;;5064440;28;20048;-64
2024/03/17 11:54:38;;;;;;;7.50;2.67;;;;;;;;;;5062394;28;20055;-65
2024/03/17 11:57:09;;;;;;;9.40;3.05;;;;;;;;;;5066624;28;20052;-67
2024/03/17 11:59:39;;;;;;;7.63;3.22;;;;;;;;;;5068752;28;20047;-65
2024/03/17 12:02:20;;;;;;;;;;;;;;;;;;5066625;28;20044;-63
2024/03/17 12:04:46;;;;;;;7.53;3.03;;;;;;;;;;5068135;28;19927;-63
2024/03/17 12:07:15;;;;;;;7.70;3.05;;;;;;;;;;5065840;28;20491;-63
2024/03/17 12:09:42;;;;;;;8.35;2.80;;;;;;;;;;5071731;28;20037;-64
2024/03/17 12:12:11;;;;;;;8.95;2.95;;;;;;;;;;5062836;28;20037;-64
2024/03/17 12:14:38;;;;;;;7.20;2.77;;;;;;;;;;5064393;28;20049;-64
2024/03/17 12:17:10;;;;;;;9.50;2.60;;;;;;;;;;5068268;28;20290;-65
2024/03/17 12:19:37;;;;;;;8.35;2.60;;;;;;;;;;5066309;28;20055;-66
2024/03/17 12:22:05;;;;;;;7.47;2.63;;;;;;;;;;5065946;28;20037;-65
2024/03/17 12:24:35;;;;;;;5.72;2.35;;;;;;;;;;5064553;28;20044;-64
2024/03/17 12:27:06;;;;;;;5.90;2.42;;;;;;;;;;5064436;28;20030;-64
2024/03/17 12:29:41;;;;;;;4.22;2.22;;;;;;;;;;5070841;28;20051;-64
2024/03/17 12:32:21;;;;;;;3.95;1.90;;;;;;;;;;5067024;28;20119;-64
2024/03/17 12:34:53;;;;;;;3.28;1.70;;;;;;;;;;5066027;28;20036;-65
2024/03/17 12:37:36;;;;;;;3.75;1.80;;;;;;;;;;5064339;28;20414;-64
2024/03/17 12:40:03;;;;;;;4.90;2.10;;;;;;;;;;5060042;28;20060;-64
2024/03/17 12:42:31;;;;;;;4.53;1.48;;;;;;;;;;5066765;28;20036;-64
2024/03/17 12:45:01;;;;;;;5.47;1.70;;;;;;;;;;5066093;28;20390;-64
2024/03/17 12:47:29;;;;;;;5.30;2.00;;;;;;;;;;5066958;28;20040;-64
2024/03/17 12:49:57;;;;;;;7.78;2.25;;;;;;;;;;5067396;28;20037;-64
2024/03/17 12:52:31;;;;;;;3.42;1.33;;;;;;;;;;5058243;28;20052;-65
2024/03/17 13:01:02;;;;;;;8.07;1.83;;;;;;;;;;5067161;28;20032;-64
2024/03/17 13:03:33;;;;;;;5.47;1.70;;;;;;;;;;5060253;28;20040;-64
2024/03/17 13:05:59;;;;;;;5.85;1.83;;;;;;;;;;5070082;28;20041;-63
2024/03/17 13:08:26;;;;;;;5.63;1.73;;;;;;;;;;5070943;28;20071;-64
2024/03/17 13:10:52;;;;;;;3.42;1.63;;;;;;;;;;5068103;28;20044;-64
2024/03/17 13:13:18;;;;;;;4.95;1.27;;;;;;;;;;5070979;28;20032;-64
2024/03/17 13:15:45;;;;;;;2.70;1.38;;;;;;;;;;5071040;28;20397;-63
2024/03/17 13:18:19;;;;;;;6.13;1.30;;;;;;;;;;5069906;28;20048;-63
2024/03/17 13:20:46;;;;;;;3.22;1.33;;;;;;;;;;5066371;28;20512;-64
2024/03/17 13:23:12;;;;;;;2.90;1.48;;;;;;;;;;5072308;28;20048;-64
2024/03/17 13:25:39;;;;;;;4.32;1.70;;;;;;;;;;5070641;28;20052;-63
2024/03/17 13:28:06;;;;;;;5.35;1.60;;;;;;;;;;5071634;28;20028;-64
2024/03/17 13:30:36;;;;;;;4.97;1.52;;;;;;;;;;5071123;28;20040;-65
2024/03/17 13:33:08;;;;;;;5.15;1.88;;;;;;;;;;5070347;28;20068;-64
2024/03/17 13:35:38;;;;;;;3.40;1.60;;;;;;;;;;5067865;28;20036;-65
2024/03/17 13:38:10;;;;;;;3.80;1.40;;;;;;;;;;5072882;28;20032;-65
2024/03/17 13:40:38;;;;;;;4.43;1.50;;;;;;;;;;5072003;28;20032;-64
2024/03/17 13:43:04;;;;;;;3.83;1.50;;;;;;;;;;5075355;28;20029;-64
2024/03/17 13:45:40;;;;;;;5.13;1.42;;;;;;;;;;5070385;28;20033;-63
2024/03/17 13:48:10;;;;;;;4.30;1.60;;;;;;;;;;5072582;28;20032;-63
2024/03/17 13:50:44;;;;;;;5.13;1.52;;;;;;;;;;5067476;28;20067;-64
2024/03/17 13:53:10;;;;;;;3.03;1.33;;;;;;;;;;5071861;28;20042;-63
2024/03/17 13:55:37;;;;;;;6.80;1.67;;;;;;;;;;5075600;28;20040;-63
2024/03/17 13:58:04;;;;;;;4.57;2.00;;;;;;;;;;5070855;28;20037;-63
2024/03/17 14:00:39;;;;;;;4.32;1.67;;;;;;;;;;5071088;28;20032;-62
2024/03/17 14:03:05;;;;;;;4.18;1.35;;;;;;;;;;5071376;28;20040;-63
2024/03/17 14:05:34;;;;;;;5.05;1.92;;;;;;;;;;5071597;28;21415;-64
2024/03/17 14:08:01;;;;;;;4.25;1.40;;;;;;;;;;5070946;28;20032;-63
2024/03/17 14:10:27;;;;;;;4.38;1.75;;;;;;;;;;5071300;28;20044;-63
2024/03/17 14:12:53;;;;;;;3.35;1.38;;;;;;;;;;5071453;28;20043;-64
2024/03/17 14:15:19;;;;;;;3.50;1.38;;;;;;;;;;5068280;28;20052;-64
2024/03/17 14:17:47;;;;;;;5.40;1.40;;;;;;;;;;5072503;28;20429;-63
2024/03/17 14:20:14;;;;;;;4.13;1.38;;;;;;;;;;5074953;28;20048;-63
2024/03/17 14:22:41;;;;;;;2.72;1.20;;;;;;;;;;5067646;28;20502;-63
2024/03/17 14:25:18;;;;;;;3.80;1.63;;;;;;;;;;5073355;28;20032;-63
2024/03/17 14:27:45;;;;;;;4.25;1.80;;;;;;;;;;5062369;28;20048;-63
2024/03/17 14:30:16;;;;;;;3.22;1.45;;;;;;;;;;5061365;28;20047;-65
2024/03/17 14:32:43;;;;;;;2.22;1.02;;;;;;;;;;5070985;28;20032;-63
2024/03/17 14:35:20;;;;;;;3.80;1.10;;;;;;;;;;5066877;28;20045;-64
2024/03/17 14:37:49;;;;;;;3.38;1.33;;;;;;;;;;5098910;28;20047;-64
2024/03/17 14:40:23;;;;;;;2.70;1.30;;;;;;;;;;5066834;28;20555;-64
2024/03/17 14:42:50;;;;;;;3.00;1.23;;;;;;;;;;5070839;28;20049;-63
2024/03/17 14:45:18;;;;;;;8.35;3.70;;;;;;;;;;5066880;28;20044;-64